createdAt,value
2022-10-12T00:00:14.330Z,100.00
2022-10-12T00:02:42.255Z,100.00
2022-10-12T00:05:08.802Z,100.00
2022-10-12T00:07:35.502Z,100.00
2022-10-12T00:10:02.367Z,100.00
2022-10-12T00:12:28.817Z,100.00
2022-10-12T00:14:55.250Z,100.00
2022-10-12T00:17:21.702Z,100.00
2022-10-12T00:19:50.054Z,100.00
2022-10-12T00:22:16.509Z,100.00
2022-10-12T00:24:43.143Z,100.00
2022-10-12T00:27:09.633Z,100.00
2022-10-12T00:29:37.094Z,100.00
2022-10-12T00:32:03.593Z,100.00
2022-10-12T00:34:30.006Z,100.00
2022-10-12T00:36:56.455Z,100.00
2022-10-12T00:39:22.898Z,100.00
2022-10-12T00:41:49.294Z,100.00
2022-10-12T00:44:34.598Z,100.00
2022-10-12T00:47:03.427Z,100.00
2022-10-12T00:49:29.894Z,100.00
2022-10-12T00:52:01.748Z,100.00
2022-10-12T00:54:32.103Z,100.00
2022-10-12T00:56:59.881Z,100.00
2022-10-12T00:59:28.518Z,100.00
2022-10-12T01:01:55.949Z,100.00
2022-10-12T01:04:23.012Z,99.40
2022-10-12T01:06:49.927Z,98.93
2022-10-12T01:09:16.453Z,98.41
2022-10-12T01:11:42.912Z,97.71
2022-10-12T01:14:09.385Z,98.01
2022-10-12T01:16:47.453Z,99.01
2022-10-12T01:19:14.266Z,99.81
2022-10-12T01:21:45.439Z,99.54
2022-10-12T01:24:30.642Z,99.16
2022-10-12T01:27:06.991Z,98.12
2022-10-12T01:29:50.067Z,98.37
2022-10-12T01:32:27.290Z,98.37
2022-10-12T01:35:10.230Z,98.23
2022-10-12T01:37:44.330Z,97.29
2022-10-12T01:40:14.965Z,96.86
2022-10-12T01:42:43.532Z,97.80
2022-10-12T01:45:11.546Z,97.89
2022-10-12T01:47:39.775Z,97.41
2022-10-12T01:50:11.914Z,97.15
2022-10-12T01:52:38.490Z,96.73
2022-10-12T01:55:17.515Z,96.82
2022-10-12T01:57:54.085Z,97.87
2022-10-12T02:00:20.746Z,97.16
2022-10-12T02:03:05.650Z,97.29
2022-10-12T02:05:48.257Z,98.41
2022-10-12T02:08:22.356Z,100.00
2022-10-12T02:10:54.870Z,100.00
2022-10-12T02:13:23.008Z,100.00
2022-10-12T02:15:51.124Z,100.00
2022-10-12T02:18:18.858Z,100.00
2022-10-12T02:20:51.440Z,99.60
2022-10-12T02:23:18.789Z,99.77
2022-10-12T02:25:46.253Z,99.82
2022-10-12T02:28:14.034Z,99.68
2022-10-12T02:30:54.044Z,98.54
2022-10-12T02:33:35.703Z,98.28
2022-10-12T02:36:08.995Z,97.53
2022-10-12T02:38:37.967Z,97.44
2022-10-12T02:41:34.039Z,98.71
2022-10-12T02:44:02.201Z,98.69
2022-10-12T02:46:30.009Z,98.33
2022-10-12T02:48:58.938Z,98.77
2022-10-12T02:51:26.478Z,99.40
2022-10-12T02:53:53.274Z,100.00
2022-10-12T02:56:19.694Z,100.00
2022-10-12T02:58:46.529Z,100.00
2022-10-12T03:01:13.414Z,99.78
2022-10-12T03:03:40.537Z,100.00
2022-10-12T03:06:07.125Z,99.98
2022-10-12T03:08:33.586Z,99.15
2022-10-12T03:11:03.833Z,98.82
2022-10-12T03:13:30.746Z,98.79
2022-10-12T03:16:04.301Z,98.57
2022-10-12T03:18:30.957Z,98.18
2022-10-12T03:20:57.588Z,97.85
2022-10-12T03:23:24.044Z,98.19
2022-10-12T03:25:50.459Z,98.76
2022-10-12T03:28:17.247Z,98.15
2022-10-12T03:30:43.911Z,97.63
2022-10-12T03:33:10.335Z,98.21
2022-10-12T03:35:36.798Z,98.34
2022-10-12T03:38:03.456Z,97.96
2022-10-12T03:40:29.936Z,99.28
2022-10-12T03:42:56.566Z,99.02
2022-10-12T03:45:23.005Z,99.29
2022-10-12T03:47:49.434Z,99.17
2022-10-12T03:50:15.865Z,99.65
2022-10-12T03:52:42.310Z,99.09
2022-10-12T03:55:08.958Z,99.28
2022-10-12T03:57:35.675Z,99.11
2022-10-12T04:00:02.242Z,98.43
2022-10-12T04:02:37.924Z,97.70
2022-10-12T04:05:05.195Z,98.18
2022-10-12T04:07:31.666Z,98.02
2022-10-12T04:09:58.176Z,97.76
2022-10-12T04:12:24.647Z,98.53
2022-10-12T04:14:51.113Z,99.24
2022-10-12T04:17:18.012Z,98.85
2022-10-12T04:19:45.086Z,98.16
2022-10-12T04:22:11.493Z,97.99
2022-10-12T04:24:37.952Z,98.37
2022-10-12T04:27:04.533Z,97.67
2022-10-12T04:29:30.968Z,97.64
2022-10-12T04:31:57.374Z,98.06
2022-10-12T04:34:23.784Z,98.36
2022-10-12T04:36:50.284Z,98.15
2022-10-12T04:39:16.699Z,97.44
2022-10-12T04:41:43.220Z,97.70
2022-10-12T04:44:09.792Z,97.47
2022-10-12T04:46:36.250Z,96.95
2022-10-12T04:49:02.738Z,96.86
2022-10-12T04:51:29.234Z,97.39
2022-10-12T04:53:55.634Z,99.14
2022-10-12T04:56:22.148Z,98.92
2022-10-12T04:58:48.610Z,98.76
2022-10-12T05:01:15.103Z,98.09
2022-10-12T05:03:42.199Z,98.06
2022-10-12T05:06:08.922Z,97.82
2022-10-12T05:08:35.334Z,97.75
2022-10-12T05:11:01.766Z,97.72
2022-10-12T05:13:28.737Z,97.57
2022-10-12T05:15:55.597Z,97.15
2022-10-12T05:18:22.045Z,97.29
2022-10-12T05:20:49.250Z,97.36
2022-10-12T05:23:17.795Z,97.18
2022-10-12T05:25:44.231Z,97.57
2022-10-12T05:28:10.732Z,97.50
2022-10-12T05:30:37.238Z,97.28
2022-10-12T05:33:03.768Z,97.20
2022-10-12T05:35:30.370Z,97.07
2022-10-12T05:37:56.914Z,97.06
2022-10-12T05:40:23.322Z,97.81
2022-10-12T05:42:49.767Z,97.54
2022-10-12T05:45:16.322Z,97.31
2022-10-12T05:47:42.797Z,97.47
2022-10-12T05:50:09.710Z,97.59
2022-10-12T05:52:36.564Z,98.25
2022-10-12T05:55:03.375Z,98.18
2022-10-12T05:57:29.900Z,98.17
2022-10-12T05:59:56.327Z,98.25
2022-10-12T06:02:22.737Z,97.85
2022-10-12T06:04:49.191Z,97.70
2022-10-12T06:07:15.646Z,97.28
2022-10-12T06:09:42.961Z,96.72
2022-10-12T06:12:09.357Z,98.23
2022-10-12T06:14:35.833Z,98.77
2022-10-12T06:17:02.233Z,99.16
2022-10-12T06:19:28.736Z,99.51
2022-10-12T06:21:55.190Z,97.88
2022-10-12T06:24:21.622Z,97.62
2022-10-12T06:26:48.062Z,97.40
2022-10-12T06:29:14.501Z,96.74
2022-10-12T06:31:40.983Z,95.88
2022-10-12T06:34:07.431Z,96.44
2022-10-12T06:36:34.017Z,95.27
2022-10-12T06:39:00.450Z,94.69
2022-10-12T06:41:26.862Z,94.89
2022-10-12T06:43:53.267Z,95.26
2022-10-12T06:46:19.783Z,94.70
2022-10-12T06:48:46.270Z,93.92
2022-10-12T06:51:12.765Z,93.45
2022-10-12T06:53:39.183Z,94.43
2022-10-12T06:56:08.869Z,93.55
2022-10-12T06:58:35.380Z,93.29
2022-10-12T07:01:03.443Z,92.61
2022-10-12T07:03:29.881Z,93.87
2022-10-12T07:06:04.433Z,93.31
2022-10-12T07:08:30.868Z,91.23
2022-10-12T07:11:04.260Z,90.96
2022-10-12T07:13:31.658Z,90.56
2022-10-12T07:15:58.157Z,82.76
2022-10-12T07:18:24.839Z,81.27
2022-10-12T07:20:51.690Z,81.47
2022-10-12T07:23:18.211Z,75.83
2022-10-12T07:25:51.516Z,74.57
2022-10-12T07:28:18.935Z,75.44
2022-10-12T07:30:45.712Z,77.32
2022-10-12T07:33:12.587Z,77.37
2022-10-12T07:35:56.887Z,78.12
2022-10-12T07:38:25.769Z,79.00
2022-10-12T07:40:52.351Z,76.56
2022-10-12T07:43:18.848Z,78.41
2022-10-12T07:45:45.551Z,78.31
2022-10-12T07:48:12.086Z,79.22
2022-10-12T07:50:38.521Z,79.68
2022-10-12T07:53:04.967Z,78.90
2022-10-12T07:55:31.983Z,78.46
2022-10-12T07:58:01.999Z,74.73
2022-10-12T08:00:28.689Z,74.63
2022-10-12T08:02:55.143Z,74.55
2022-10-12T08:05:22.266Z,74.56
2022-10-12T08:07:49.389Z,76.30
2022-10-12T08:10:16.598Z,73.86
2022-10-12T08:12:46.423Z,74.71
2022-10-12T08:15:16.190Z,73.42
2022-10-12T08:17:42.649Z,77.93
2022-10-12T08:20:09.365Z,80.20
2022-10-12T08:22:35.906Z,79.98
2022-10-12T08:25:02.316Z,81.29
2022-10-12T08:27:30.525Z,79.71
2022-10-12T08:29:56.943Z,79.51
2022-10-12T08:32:23.386Z,75.79
2022-10-12T08:34:49.809Z,74.67
2022-10-12T08:37:16.248Z,70.42
2022-10-12T08:39:42.854Z,70.70
2022-10-12T08:42:12.113Z,69.91
2022-10-12T08:44:47.809Z,69.55
2022-10-12T08:47:33.218Z,68.63
2022-10-12T08:50:01.481Z,68.89
2022-10-12T08:52:32.111Z,72.05
2022-10-12T08:55:06.755Z,69.97
2022-10-12T08:57:35.322Z,68.67
2022-10-12T09:00:01.865Z,65.78
2022-10-12T09:02:47.172Z,64.54
2022-10-12T09:05:17.967Z,64.45
2022-10-12T09:07:55.322Z,64.63
2022-10-12T09:10:22.928Z,63.75
2022-10-12T09:13:08.423Z,62.09
2022-10-12T09:15:58.256Z,64.04
2022-10-12T09:18:40.751Z,62.27
2022-10-12T09:21:11.573Z,62.78
2022-10-12T09:23:39.887Z,62.47
2022-10-12T09:26:17.032Z,62.87
2022-10-12T09:28:50.853Z,64.92
2022-10-12T09:31:36.125Z,63.31
2022-10-12T09:34:05.465Z,63.15
2022-10-12T09:36:34.033Z,63.31
2022-10-12T09:39:02.693Z,57.35
2022-10-12T09:41:40.714Z,59.48
2022-10-12T09:44:07.962Z,60.00
2022-10-12T09:46:40.688Z,55.70
2022-10-12T09:49:07.306Z,56.28
2022-10-12T09:51:34.079Z,55.70
2022-10-12T09:54:04.237Z,51.42
2022-10-12T09:56:33.497Z,51.63
2022-10-12T09:59:04.813Z,52.20
2022-10-12T10:01:32.570Z,50.41
2022-10-12T10:04:23.590Z,49.94
2022-10-12T10:06:50.741Z,46.55
2022-10-12T10:09:30.877Z,47.63
2022-10-12T10:11:58.398Z,47.49
2022-10-12T10:14:25.053Z,50.35
2022-10-12T10:16:52.449Z,49.41
2022-10-12T10:19:21.534Z,48.16
2022-10-12T10:21:47.981Z,46.54
2022-10-12T10:24:24.160Z,50.00
2022-10-12T10:26:52.559Z,48.17
2022-10-12T10:29:21.803Z,46.59
2022-10-12T10:31:48.577Z,47.89
2022-10-12T10:34:18.098Z,48.26
2022-10-12T10:36:49.784Z,46.25
2022-10-12T10:39:18.816Z,43.43
2022-10-12T10:41:45.306Z,47.07
2022-10-12T10:44:24.707Z,46.09
2022-10-12T10:46:51.774Z,42.05
2022-10-12T10:49:25.846Z,40.62
2022-10-12T10:51:53.925Z,42.59
2022-10-12T10:54:23.145Z,43.21
2022-10-12T10:56:54.329Z,42.53
2022-10-12T10:59:29.900Z,42.39
2022-10-12T11:02:00.542Z,41.86
2022-10-12T11:04:32.767Z,41.34
2022-10-12T11:07:07.634Z,45.15
2022-10-12T11:09:41.448Z,44.15
2022-10-12T11:12:12.531Z,41.11
2022-10-12T11:14:43.030Z,40.98
2022-10-12T11:17:21.669Z,43.52
2022-10-12T11:20:05.967Z,42.78
2022-10-12T11:22:40.093Z,41.96
2022-10-12T11:25:29.314Z,42.26
2022-10-12T11:27:55.920Z,42.42
2022-10-12T11:30:24.182Z,41.08
2022-10-12T11:32:53.726Z,43.70
2022-10-12T11:35:31.629Z,44.33
2022-10-12T11:38:00.402Z,45.75
2022-10-12T11:40:57.160Z,45.04
2022-10-12T11:43:24.221Z,43.45
2022-10-12T11:45:56.571Z,43.79
2022-10-12T11:48:27.306Z,46.82
2022-10-12T11:50:58.968Z,46.41
2022-10-12T11:53:44.654Z,45.30
2022-10-12T11:56:15.223Z,43.11
2022-10-12T11:58:59.951Z,42.83
2022-10-12T12:01:32.880Z,42.94
2022-10-12T12:04:22.889Z,44.77
2022-10-12T12:06:53.567Z,43.78
2022-10-12T12:09:22.759Z,44.67
2022-10-12T12:11:49.202Z,45.76
2022-10-12T12:14:21.722Z,46.56
2022-10-12T12:16:49.239Z,45.39
2022-10-12T12:19:42.674Z,46.54
2022-10-12T12:22:17.130Z,43.23
2022-10-12T12:24:57.543Z,43.57
2022-10-12T12:27:36.141Z,43.61
2022-10-12T12:30:07.070Z,44.69
2022-10-12T12:32:41.943Z,44.96
2022-10-12T12:35:18.180Z,44.55
2022-10-12T12:37:45.260Z,44.25
2022-10-12T12:40:20.746Z,44.95
2022-10-12T12:42:47.252Z,44.80
2022-10-12T12:45:43.289Z,45.05
2022-10-12T12:48:10.687Z,43.93
2022-10-12T12:50:39.639Z,45.27
2022-10-12T12:53:08.426Z,44.24
2022-10-12T12:55:48.268Z,43.86
2022-10-12T12:58:14.654Z,43.22
2022-10-12T13:01:04.406Z,45.09
2022-10-12T13:03:36.967Z,45.63
2022-10-12T13:06:06.465Z,44.16
2022-10-12T13:08:32.954Z,44.16
2022-10-12T13:11:31.226Z,44.65
2022-10-12T13:14:24.812Z,45.74
2022-10-12T13:17:31.960Z,45.26
2022-10-12T13:19:56.601Z,45.45
2022-10-12T13:22:28.240Z,45.80
2022-10-12T13:24:58.505Z,45.84
2022-10-12T13:27:34.359Z,44.98
2022-10-12T13:30:10.289Z,46.17
2022-10-12T13:32:46.109Z,45.81
2022-10-12T13:35:22.286Z,46.55
2022-10-12T13:37:59.671Z,45.29
2022-10-12T13:40:36.270Z,46.83
2022-10-12T13:43:21.570Z,46.33
2022-10-12T13:45:48.663Z,47.54
2022-10-12T13:48:34.084Z,47.55
2022-10-12T13:51:20.282Z,46.74
2022-10-12T13:53:46.687Z,46.19
2022-10-12T13:56:20.844Z,46.14
2022-10-12T13:58:47.589Z,46.40
2022-10-12T14:01:14.243Z,47.66
2022-10-12T14:03:42.246Z,48.46
2022-10-12T14:06:23.711Z,48.10
2022-10-12T14:08:50.206Z,47.27
2022-10-12T14:11:17.458Z,47.52
2022-10-12T14:13:45.797Z,48.30
2022-10-12T14:16:13.388Z,48.63
2022-10-12T14:18:41.814Z,50.10
2022-10-12T14:21:14.833Z,49.03
2022-10-12T14:23:42.706Z,51.21
2022-10-12T14:26:23.544Z,51.09
2022-10-12T14:28:50.097Z,52.10
2022-10-12T14:31:17.097Z,52.06
2022-10-12T14:33:43.609Z,52.58
2022-10-12T14:36:26.771Z,52.02
2022-10-12T14:38:53.658Z,52.01
2022-10-12T14:41:37.867Z,51.74
2022-10-12T14:44:11.309Z,51.42
2022-10-12T14:46:42.668Z,50.29
2022-10-12T14:49:32.115Z,50.51
2022-10-12T14:51:59.424Z,51.52
2022-10-12T14:54:25.863Z,50.59
2022-10-12T14:56:52.450Z,49.91
2022-10-12T14:59:19.196Z,50.26
2022-10-12T15:01:48.993Z,50.81
2022-10-12T15:04:17.724Z,52.11
2022-10-12T15:06:49.813Z,52.51
2022-10-12T15:09:17.259Z,53.80
2022-10-12T15:11:43.662Z,53.08
2022-10-12T15:14:11.080Z,54.28
2022-10-12T15:16:37.495Z,53.50
2022-10-12T15:19:03.901Z,52.57
2022-10-12T15:21:30.309Z,53.31
2022-10-12T15:23:57.278Z,53.79
2022-10-12T15:26:23.688Z,54.14
2022-10-12T15:28:50.209Z,53.17
2022-10-12T15:31:18.364Z,53.93
2022-10-12T15:33:45.442Z,54.32
2022-10-12T15:36:11.904Z,54.26
2022-10-12T15:38:38.744Z,54.36
2022-10-12T15:41:05.539Z,54.56
2022-10-12T15:43:33.681Z,55.74
2022-10-12T15:46:02.261Z,55.64
2022-10-12T15:48:28.982Z,56.67
2022-10-12T15:50:55.651Z,61.07
2022-10-12T15:53:24.342Z,63.10
2022-10-12T15:55:51.425Z,65.40
2022-10-12T15:58:17.875Z,66.69
2022-10-12T16:00:44.461Z,67.01
2022-10-12T16:03:15.522Z,69.51
2022-10-12T16:05:41.993Z,69.66
2022-10-12T16:08:08.452Z,69.65
2022-10-12T16:10:37.089Z,70.43
2022-10-12T16:13:04.894Z,71.45
2022-10-12T16:15:33.190Z,72.63
2022-10-12T16:18:00.430Z,72.31
2022-10-12T16:20:28.073Z,73.27
2022-10-12T16:22:54.613Z,73.02
2022-10-12T16:25:23.785Z,72.60
2022-10-12T16:27:54.381Z,73.87
2022-10-12T16:30:21.563Z,73.28
2022-10-12T16:32:48.240Z,73.13
2022-10-12T16:35:15.331Z,74.10
2022-10-12T16:37:42.077Z,74.68
2022-10-12T16:40:08.908Z,75.16
2022-10-12T16:42:35.566Z,76.41
2022-10-12T16:45:02.185Z,75.45
2022-10-12T16:47:28.715Z,74.75
2022-10-12T16:49:55.143Z,74.83
2022-10-12T16:52:25.071Z,76.36
2022-10-12T16:54:55.321Z,77.03
2022-10-12T16:57:22.158Z,77.15
2022-10-12T16:59:49.114Z,78.21
2022-10-12T17:02:17.050Z,78.58
2022-10-12T17:04:43.776Z,77.60
2022-10-12T17:07:10.288Z,77.13
2022-10-12T17:09:36.917Z,77.16
2022-10-12T17:12:03.987Z,76.67
2022-10-12T17:14:30.819Z,76.77
2022-10-12T17:16:57.527Z,76.87
2022-10-12T17:19:23.928Z,78.65
2022-10-12T17:21:50.409Z,78.92
2022-10-12T17:24:18.586Z,78.65
2022-10-12T17:26:45.619Z,79.91
2022-10-12T17:29:13.538Z,80.03
2022-10-12T17:31:40.050Z,79.74
2022-10-12T17:34:07.251Z,78.93
2022-10-12T17:36:34.816Z,79.29
2022-10-12T17:39:01.454Z,79.66
2022-10-12T17:41:28.836Z,79.25
2022-10-12T17:43:55.368Z,79.74
2022-10-12T17:46:22.814Z,79.49
2022-10-12T17:48:49.542Z,80.40
2022-10-12T17:51:16.226Z,79.43
2022-10-12T17:53:43.051Z,80.55
2022-10-12T17:56:11.978Z,79.80
2022-10-12T17:58:38.553Z,80.33
2022-10-12T18:01:09.806Z,79.87
2022-10-12T18:03:36.523Z,80.28
2022-10-12T18:06:06.734Z,80.71
2022-10-12T18:08:33.253Z,81.21
2022-10-12T18:11:00.283Z,80.04
2022-10-12T18:13:26.969Z,80.25
2022-10-12T18:15:53.433Z,81.37
2022-10-12T18:18:19.997Z,83.66
2022-10-12T18:20:46.478Z,84.93
2022-10-12T18:23:13.219Z,84.91
2022-10-12T18:25:40.329Z,83.29
2022-10-12T18:28:07.557Z,83.28
2022-10-12T18:30:34.619Z,82.81
2022-10-12T18:33:01.375Z,82.77
2022-10-12T18:35:33.661Z,82.70
2022-10-12T18:38:00.236Z,82.06
2022-10-12T18:40:26.722Z,81.40
2022-10-12T18:42:53.246Z,81.40
2022-10-12T18:45:19.699Z,80.90
2022-10-12T18:47:46.209Z,80.68
2022-10-12T18:50:12.666Z,81.91
2022-10-12T18:52:39.103Z,82.21
2022-10-12T18:55:05.938Z,82.65
2022-10-12T18:57:35.390Z,82.02
2022-10-12T19:00:06.645Z,81.47
2022-10-12T19:02:33.734Z,81.27
2022-10-12T19:05:00.189Z,81.88
2022-10-12T19:07:26.667Z,82.36
2022-10-12T19:09:53.160Z,82.96
2022-10-12T19:12:20.144Z,82.63
2022-10-12T19:14:47.852Z,82.32
2022-10-12T19:17:15.202Z,82.92
2022-10-12T19:19:41.966Z,83.29
2022-10-12T19:22:08.482Z,83.51
2022-10-12T19:24:34.913Z,83.71
2022-10-12T19:27:01.309Z,85.00
2022-10-12T19:29:27.794Z,84.37
2022-10-12T19:31:54.242Z,84.01
2022-10-12T19:34:21.268Z,84.23
2022-10-12T19:36:48.025Z,84.15
2022-10-12T19:39:16.178Z,83.57
2022-10-12T19:41:42.624Z,82.50
2022-10-12T19:44:10.042Z,83.89
2022-10-12T19:46:36.802Z,83.39
2022-10-12T19:49:03.426Z,82.38
2022-10-12T19:51:31.837Z,82.36
2022-10-12T19:54:01.970Z,81.61
2022-10-12T19:56:28.693Z,81.90
2022-10-12T19:58:56.676Z,81.92
2022-10-12T20:01:30.610Z,81.43
2022-10-12T20:03:57.392Z,81.45
2022-10-12T20:06:25.001Z,80.90
2022-10-12T20:08:52.619Z,81.67
2022-10-12T20:11:22.658Z,82.97
2022-10-12T20:13:51.185Z,83.96
2022-10-12T20:16:18.537Z,83.73
2022-10-12T20:18:45.069Z,84.63
2022-10-12T20:21:12.853Z,86.20
2022-10-12T20:23:40.665Z,86.66
2022-10-12T20:26:12.689Z,85.92
2022-10-12T20:28:39.292Z,85.57
2022-10-12T20:31:06.090Z,84.92
2022-10-12T20:33:33.246Z,84.14
2022-10-12T20:35:59.967Z,84.17
2022-10-12T20:38:26.481Z,83.94
2022-10-12T20:41:03.210Z,84.16
2022-10-12T20:43:29.764Z,84.64
2022-10-12T20:45:56.248Z,84.66
2022-10-12T20:48:22.779Z,85.14
2022-10-12T20:50:49.225Z,84.75
2022-10-12T20:53:15.638Z,84.56
2022-10-12T20:55:42.040Z,85.15
2022-10-12T20:58:08.523Z,85.77
2022-10-12T21:00:35.038Z,85.51
2022-10-12T21:03:01.574Z,85.35
2022-10-12T21:05:28.142Z,86.10
2022-10-12T21:07:54.606Z,86.66
2022-10-12T21:10:21.124Z,87.19
2022-10-12T21:12:47.574Z,86.40
2022-10-12T21:15:14.089Z,86.79
2022-10-12T21:17:40.589Z,87.80
2022-10-12T21:20:07.601Z,87.36
2022-10-12T21:22:34.106Z,87.49
2022-10-12T21:25:00.728Z,88.19
2022-10-12T21:27:27.206Z,89.34
2022-10-12T21:29:53.679Z,90.80
2022-10-12T21:32:20.404Z,91.05
2022-10-12T21:34:48.339Z,91.30
2022-10-12T21:37:14.769Z,91.16
2022-10-12T21:39:41.189Z,90.44
2022-10-12T21:42:07.622Z,91.32
2022-10-12T21:44:34.059Z,91.00
2022-10-12T21:47:00.534Z,90.67
2022-10-12T21:49:26.998Z,90.85
2022-10-12T21:51:53.465Z,90.88
2022-10-12T21:54:19.914Z,90.21
2022-10-12T21:56:47.798Z,90.53
2022-10-12T21:59:14.305Z,90.71
2022-10-12T22:01:41.610Z,90.09
2022-10-12T22:04:11.363Z,89.97
2022-10-12T22:06:37.793Z,90.65
2022-10-12T22:09:06.275Z,91.78
2022-10-12T22:11:34.032Z,91.25
2022-10-12T22:14:02.521Z,90.49
2022-10-12T22:16:29.502Z,90.38
2022-10-12T22:18:56.963Z,90.94
2022-10-12T22:21:27.006Z,91.07
2022-10-12T22:23:53.546Z,91.10
2022-10-12T22:26:20.904Z,90.31
2022-10-12T22:28:54.982Z,90.38
2022-10-12T22:31:23.117Z,90.65
2022-10-12T22:33:49.728Z,89.97
2022-10-12T22:36:16.388Z,90.71
2022-10-12T22:38:42.974Z,91.08
2022-10-12T22:41:13.346Z,90.86
2022-10-12T22:43:45.879Z,91.17
2022-10-12T22:46:12.384Z,90.56
2022-10-12T22:48:38.921Z,90.43
2022-10-12T22:51:07.868Z,91.08
2022-10-12T22:53:34.911Z,91.35
2022-10-12T22:56:03.761Z,91.06
2022-10-12T22:58:30.409Z,91.31
2022-10-12T23:01:16.244Z,91.25
2022-10-12T23:03:42.714Z,92.21
2022-10-12T23:06:09.793Z,92.00
2022-10-12T23:08:36.221Z,91.53
2022-10-12T23:11:07.418Z,92.21
2022-10-12T23:13:35.518Z,92.22
2022-10-12T23:16:03.198Z,91.60
2022-10-12T23:18:29.696Z,91.80
2022-10-12T23:20:56.149Z,91.15
2022-10-12T23:23:22.650Z,91.34
2022-10-12T23:25:49.070Z,91.34
2022-10-12T23:28:15.559Z,91.22
2022-10-12T23:30:42.002Z,91.99
2022-10-12T23:33:08.426Z,92.48
2022-10-12T23:35:34.874Z,92.15
2022-10-12T23:38:01.391Z,93.16
2022-10-12T23:40:27.817Z,93.97
2022-10-12T23:42:54.279Z,93.58
2022-10-12T23:45:20.718Z,92.79
2022-10-12T23:47:47.139Z,93.14
2022-10-12T23:50:13.638Z,92.69
2022-10-12T23:52:40.075Z,93.35
2022-10-12T23:55:06.806Z,93.55
2022-10-12T23:57:46.773Z,92.87
